createdAt,value
2022-08-03T04:34:59.512Z,3.20
2022-08-03T04:40:05.393Z,3.45
2022-08-03T04:45:12.327Z,2.72
2022-08-03T04:50:19.414Z,2.88
2022-08-03T04:55:30.043Z,3.30
2022-08-03T05:00:32.458Z,3.20
2022-08-03T05:05:49.685Z,2.58
2022-08-03T05:10:52.747Z,3.03
2022-08-03T05:15:54.739Z,3.08
2022-08-03T05:20:56.636Z,3.00
2022-08-03T05:25:58.647Z,3.58
2022-08-03T05:31:00.574Z,2.83
2022-08-03T05:36:04.443Z,3.03
2022-08-03T05:41:21.785Z,2.90
2022-08-03T05:46:25.990Z,2.95
2022-08-03T05:51:28.934Z,3.33
2022-08-03T05:56:30.870Z,2.47
2022-08-03T06:01:33.273Z,2.47
2022-08-03T06:06:36.490Z,2.75
2022-08-03T06:11:38.519Z,2.17
2022-08-03T06:16:40.550Z,1.95
2022-08-03T06:21:49.253Z,2.22
2022-08-03T06:26:53.646Z,2.45
2022-08-03T06:31:55.756Z,2.20
2022-08-03T06:37:01.968Z,2.40
2022-08-03T06:42:05.030Z,2.58
2022-08-03T06:47:06.985Z,1.80
2022-08-03T06:52:08.959Z,2.28
2022-08-03T06:57:11.689Z,2.10
2022-08-03T07:02:19.065Z,2.35
2022-08-03T07:07:21.432Z,2.00
2022-08-03T07:12:23.393Z,2.38
2022-08-03T07:17:25.624Z,2.47
2022-08-03T07:22:28.451Z,3.03
2022-08-03T07:27:31.115Z,2.33
2022-08-03T07:32:33.265Z,2.17
2022-08-03T07:37:35.512Z,2.63
2022-08-03T07:42:37.447Z,2.47
2022-08-03T07:47:39.687Z,2.28
2022-08-03T07:52:51.351Z,2.63
2022-08-03T07:58:07.801Z,2.10
2022-08-03T08:03:10.157Z,2.92
2022-08-03T08:08:12.161Z,2.13
2022-08-03T08:18:16.240Z,2.42
2022-08-03T08:23:43.674Z,2.40
2022-08-03T08:28:44.911Z,2.28
2022-08-03T08:39:06.655Z,2.42
2022-08-03T08:49:17.465Z,2.30
2022-08-03T08:54:22.850Z,2.25
2022-08-03T08:59:25.495Z,1.95
2022-08-03T09:04:29.535Z,2.10
2022-08-03T09:10:10.901Z,2.05
2022-08-03T09:15:15.926Z,2.00
2022-08-03T09:20:18.394Z,2.10
2022-08-03T09:25:24.662Z,1.48
2022-08-03T09:30:34.705Z,1.70
2022-08-03T09:35:54.867Z,2.03
2022-08-03T09:41:00.459Z,1.30
2022-08-03T09:46:05.266Z,2.05
2022-08-03T09:51:13.423Z,1.83
2022-08-03T09:56:43.420Z,1.48
2022-08-03T10:01:45.579Z,2.20
2022-08-03T10:07:09.691Z,1.90
2022-08-03T10:12:13.839Z,2.30
2022-08-03T10:17:16.426Z,2.03
2022-08-03T10:22:33.951Z,2.03
2022-08-03T10:27:40.526Z,2.35
2022-08-03T10:32:49.377Z,2.03
2022-08-03T10:38:18.426Z,1.85
2022-08-03T10:43:25.400Z,2.00
2022-08-03T10:48:28.050Z,1.75
2022-08-03T10:53:40.359Z,1.98
2022-08-03T10:58:57.262Z,1.75
2022-08-03T11:03:59.978Z,2.00
2022-08-03T11:09:10.962Z,1.90
2022-08-03T11:14:17.742Z,2.28
2022-08-03T11:19:28.132Z,1.98
2022-08-03T11:24:51.268Z,1.63
2022-08-03T11:30:18.134Z,1.70
2022-08-03T11:35:28.954Z,1.50
2022-08-03T11:40:52.542Z,1.65
2022-08-03T11:46:28.570Z,1.60
2022-08-03T11:51:33.713Z,1.55
2022-08-03T11:56:51.240Z,1.77
2022-08-03T12:02:11.456Z,1.40
2022-08-03T12:08:02.185Z,1.47
2022-08-03T12:12:46.880Z,1.73
2022-08-03T12:17:49.511Z,1.50
2022-08-03T12:22:52.070Z,1.50
2022-08-03T12:28:36.353Z,1.40
2022-08-03T12:33:29.922Z,1.60
2022-08-03T12:38:36.388Z,1.63
2022-08-03T12:43:51.906Z,1.17
2022-08-03T12:49:15.647Z,1.60
2022-08-03T12:54:32.087Z,2.40
2022-08-03T12:59:52.775Z,1.98
2022-08-03T13:04:56.295Z,2.55
2022-08-03T13:09:58.716Z,2.42
2022-08-03T13:15:01.184Z,1.80
2022-08-03T13:20:04.235Z,1.73
2022-08-03T13:25:06.658Z,1.90
2022-08-03T13:30:09.821Z,1.70
2022-08-03T13:35:12.675Z,1.80
2022-08-03T13:40:19.373Z,1.85
2022-08-03T13:45:31.692Z,1.95
2022-08-03T13:50:33.797Z,1.60
2022-08-03T13:55:35.938Z,1.70
2022-08-03T14:00:39.762Z,1.58
2022-08-03T14:05:45.133Z,1.63
2022-08-03T14:10:47.149Z,1.50
2022-08-03T14:15:50.008Z,1.95
2022-08-03T14:20:56.341Z,1.50
2022-08-03T14:25:59.410Z,1.50
2022-08-03T14:31:02.315Z,1.67
2022-08-03T14:36:05.293Z,1.63
2022-08-03T14:41:07.389Z,1.50
2022-08-03T14:46:14.548Z,1.52
2022-08-03T14:51:18.727Z,1.10
2022-08-03T14:56:20.781Z,1.60
2022-08-03T15:02:03.510Z,1.20
2022-08-03T15:06:44.854Z,1.13
2022-08-03T15:11:53.869Z,1.15
2022-08-03T15:16:56.019Z,1.10
2022-08-03T15:21:58.235Z,1.25
2022-08-03T15:27:03.096Z,1.15
2022-08-03T15:32:09.593Z,1.38
2022-08-03T15:37:16.613Z,1.20
2022-08-03T15:42:18.870Z,0.90
2022-08-03T15:47:23.253Z,1.10
2022-08-03T15:52:25.313Z,1.20
2022-08-03T15:57:27.366Z,0.90
2022-08-03T16:02:29.422Z,0.98
2022-08-03T16:08:02.990Z,0.95
2022-08-03T16:13:05.663Z,1.23
2022-08-03T16:18:07.974Z,0.80
2022-08-03T16:23:17.301Z,1.05
2022-08-03T16:28:23.032Z,1.10
2022-08-03T16:33:25.057Z,0.95
2022-08-03T16:38:30.632Z,1.10
2022-08-03T16:43:35.267Z,1.00
2022-08-03T16:48:38.569Z,1.10
2022-08-03T16:54:05.311Z,0.68
2022-08-03T16:59:04.299Z,0.85
2022-08-03T17:04:07.446Z,1.40
2022-08-03T17:09:18.185Z,1.05
2022-08-03T17:14:28.304Z,0.93
2022-08-03T17:19:34.300Z,1.00
2022-08-03T17:24:41.592Z,1.20
2022-08-03T17:29:49.277Z,1.85
2022-08-03T17:34:51.980Z,1.83
2022-08-03T17:39:59.204Z,2.10
2022-08-03T17:45:04.026Z,2.20
2022-08-03T17:50:24.953Z,2.00
2022-08-03T17:55:57.180Z,2.08
2022-08-03T18:02:00.478Z,2.20
2022-08-03T18:06:55.538Z,2.15
2022-08-03T18:12:07.784Z,1.92
2022-08-03T18:17:55.445Z,2.17
2022-08-03T18:22:55.925Z,1.83
2022-08-03T18:27:59.300Z,2.22
2022-08-03T18:34:16.522Z,2.53
2022-08-03T18:38:33.699Z,2.38
2022-08-03T18:44:08.541Z,2.17
2022-08-03T18:49:50.173Z,2.15
2022-08-03T19:00:42.708Z,2.30
2022-08-03T19:12:12.741Z,2.10
2022-08-03T19:17:11.389Z,1.83
2022-08-03T19:22:23.140Z,2.50
2022-08-03T19:27:27.238Z,2.00
2022-08-03T19:32:33.142Z,2.58
2022-08-03T19:37:39.685Z,2.35
2022-08-03T19:42:55.261Z,1.92
2022-08-03T19:48:09.745Z,1.70
2022-08-03T21:13:10.495Z,1.95
